createdAt,value
2022-11-26T00:02:27.561Z,5.02
2022-11-26T00:04:57.611Z,5.03
2022-11-26T00:07:28.473Z,5.07
2022-11-26T00:09:58.063Z,5.07
2022-11-26T00:12:27.189Z,5.06
2022-11-26T00:14:55.100Z,5.07
2022-11-26T00:17:22.579Z,5.05
2022-11-26T00:19:50.016Z,5.05
2022-11-26T00:22:26.444Z,5.05
2022-11-26T00:24:54.717Z,5.04
2022-11-26T00:27:25.915Z,5.03
2022-11-26T00:29:54.543Z,5.02
2022-11-26T00:32:24.655Z,5.01
2022-11-26T00:34:53.449Z,5.02
2022-11-26T00:37:54.193Z,4.99
2022-11-26T00:40:25.074Z,5.01
2022-11-26T00:42:57.397Z,5.03
2022-11-26T00:45:31.158Z,5.01
2022-11-26T00:47:59.091Z,5.01
2022-11-26T00:50:26.991Z,5.01
2022-11-26T00:52:55.440Z,4.98
2022-11-26T00:55:37.626Z,4.95
2022-11-26T00:58:07.058Z,4.92
2022-11-26T01:00:35.644Z,4.95
2022-11-26T01:03:03.180Z,4.96
2022-11-26T01:05:33.489Z,4.99
2022-11-26T01:08:06.881Z,4.99
2022-11-26T01:10:34.263Z,4.99
2022-11-26T01:13:01.825Z,4.98
2022-11-26T01:15:29.240Z,4.96
2022-11-26T01:17:56.611Z,4.92
2022-11-26T01:20:30.362Z,4.97
2022-11-26T01:22:59.110Z,4.98
2022-11-26T01:25:27.420Z,5.00
2022-11-26T01:27:55.199Z,5.00
2022-11-26T01:30:24.503Z,5.05
2022-11-26T01:32:52.500Z,5.04
2022-11-26T01:35:20.410Z,5.02
2022-11-26T01:37:48.468Z,5.04
2022-11-26T01:40:43.487Z,5.04
2022-11-26T01:43:50.023Z,4.98
2022-11-26T01:46:22.700Z,4.89
2022-11-26T01:48:50.718Z,4.90
2022-11-26T01:51:27.039Z,4.92
2022-11-26T01:54:00.693Z,4.93
2022-11-26T01:56:33.285Z,4.96
2022-11-26T01:59:18.022Z,4.98
2022-11-26T02:01:47.855Z,5.00
2022-11-26T02:04:37.868Z,5.03
2022-11-26T02:07:06.557Z,5.05
2022-11-26T02:09:34.118Z,5.05
2022-11-26T02:12:01.628Z,5.04
2022-11-26T02:14:35.248Z,5.04
2022-11-26T02:17:35.163Z,5.06
2022-11-26T02:20:29.701Z,5.05
2022-11-26T02:23:33.086Z,5.05
2022-11-26T02:26:46.465Z,5.05
2022-11-26T02:29:22.913Z,5.02
2022-11-26T02:32:19.599Z,4.99
2022-11-26T02:35:06.743Z,4.99
2022-11-26T02:37:39.789Z,5.00
2022-11-26T02:40:08.777Z,5.00
2022-11-26T02:42:37.258Z,4.99
2022-11-26T02:45:16.419Z,5.01
2022-11-26T02:47:47.687Z,5.03
2022-11-26T02:50:42.214Z,5.02
2022-11-26T02:53:12.912Z,5.03
2022-11-26T02:55:44.397Z,4.99
2022-11-26T02:58:11.963Z,4.96
2022-11-26T03:00:41.960Z,4.92
2022-11-26T03:03:24.182Z,4.90
2022-11-26T03:05:58.007Z,4.90
2022-11-26T03:08:27.554Z,4.92
2022-11-26T03:10:55.173Z,4.95
2022-11-26T03:13:22.619Z,4.93
2022-11-26T03:15:50.030Z,4.92
2022-11-26T03:18:17.911Z,4.90
2022-11-26T03:20:45.161Z,4.87
2022-11-26T03:23:12.454Z,4.85
2022-11-26T03:25:40.217Z,4.83
2022-11-26T03:28:07.602Z,4.81
2022-11-26T03:30:35.029Z,4.82
2022-11-26T03:33:03.820Z,4.84
2022-11-26T03:35:31.385Z,4.84
2022-11-26T03:37:58.790Z,4.82
2022-11-26T03:40:26.393Z,4.82
2022-11-26T03:42:53.755Z,4.81
2022-11-26T03:45:21.151Z,4.83
2022-11-26T03:47:48.698Z,4.82
2022-11-26T03:50:16.286Z,4.81
2022-11-26T03:52:43.838Z,4.82
2022-11-26T03:55:11.499Z,4.81
2022-11-26T03:57:39.075Z,4.80
2022-11-26T04:00:08.890Z,4.81
2022-11-26T04:02:36.712Z,4.80
2022-11-26T04:05:04.454Z,4.83
2022-11-26T04:07:34.655Z,4.80
2022-11-26T04:10:02.186Z,4.81
2022-11-26T04:12:29.498Z,4.81
2022-11-26T04:14:56.883Z,4.81
2022-11-26T04:17:24.325Z,4.87
2022-11-26T04:19:52.021Z,4.83
2022-11-26T04:22:19.672Z,4.86
2022-11-26T04:24:46.974Z,4.86
2022-11-26T04:27:14.471Z,4.89
2022-11-26T04:29:42.017Z,4.90
2022-11-26T04:32:09.505Z,4.91
2022-11-26T04:34:37.199Z,4.90
2022-11-26T04:37:04.868Z,4.89
2022-11-26T04:39:32.282Z,4.90
2022-11-26T04:41:59.733Z,4.91
2022-11-26T04:44:27.169Z,4.91
2022-11-26T04:46:54.560Z,4.91
2022-11-26T04:49:22.165Z,4.87
2022-11-26T04:51:49.446Z,4.91
2022-11-26T04:54:16.826Z,4.94
2022-11-26T04:56:44.264Z,4.98
2022-11-26T04:59:11.713Z,4.99
2022-11-26T05:01:39.130Z,4.97
2022-11-26T05:04:06.712Z,4.99
2022-11-26T05:06:34.768Z,4.98
2022-11-26T05:09:02.178Z,4.98
2022-11-26T05:11:29.557Z,5.02
2022-11-26T05:13:57.007Z,5.00
2022-11-26T05:16:24.538Z,4.99
2022-11-26T05:18:52.071Z,5.01
2022-11-26T05:21:19.481Z,5.02
2022-11-26T05:23:46.841Z,5.05
2022-11-26T05:26:15.071Z,5.07
2022-11-26T05:28:42.943Z,5.08
2022-11-26T05:31:10.945Z,5.07
2022-11-26T05:33:38.199Z,5.06
2022-11-26T05:36:05.600Z,5.08
2022-11-26T05:38:32.994Z,5.09
2022-11-26T05:41:00.622Z,5.09
2022-11-26T05:43:28.142Z,5.08
2022-11-26T05:45:55.422Z,5.11
2022-11-26T05:48:22.890Z,5.08
2022-11-26T05:50:57.680Z,5.09
2022-11-26T05:53:25.381Z,5.09
2022-11-26T05:55:52.781Z,5.07
2022-11-26T05:58:20.570Z,5.05
2022-11-26T06:00:47.951Z,5.10
2022-11-26T06:03:19.813Z,5.09
2022-11-26T06:05:48.098Z,5.04
2022-11-26T06:08:15.508Z,5.05
2022-11-26T06:10:43.995Z,5.04
2022-11-26T06:13:11.383Z,5.05
2022-11-26T06:15:38.720Z,5.04
2022-11-26T06:18:06.212Z,5.06
2022-11-26T06:20:33.556Z,5.08
2022-11-26T06:23:01.080Z,5.06
2022-11-26T06:25:28.628Z,5.06
2022-11-26T06:27:56.839Z,5.06
2022-11-26T06:30:24.523Z,5.06
2022-11-26T06:32:51.928Z,5.05
2022-11-26T06:35:19.330Z,5.09
2022-11-26T06:37:46.698Z,5.08
2022-11-26T06:40:19.677Z,5.09
2022-11-26T06:42:52.207Z,5.09
2022-11-26T06:45:21.605Z,5.08
2022-11-26T06:47:51.059Z,5.09
2022-11-26T06:50:20.629Z,5.13
2022-11-26T06:52:54.786Z,5.10
2022-11-26T06:55:22.695Z,5.10
2022-11-26T06:57:51.402Z,5.10
2022-11-26T07:00:19.226Z,5.14
2022-11-26T07:02:46.748Z,5.13
2022-11-26T07:05:14.167Z,5.16
2022-11-26T07:07:41.838Z,5.14
2022-11-26T07:10:09.454Z,5.13
2022-11-26T07:12:36.882Z,5.17
2022-11-26T07:15:05.093Z,5.15
2022-11-26T07:17:33.012Z,5.16
2022-11-26T07:20:00.448Z,5.14
2022-11-26T07:22:27.768Z,5.16
2022-11-26T07:24:55.175Z,5.15
2022-11-26T07:27:22.764Z,5.14
2022-11-26T07:29:51.844Z,5.13
2022-11-26T07:32:19.148Z,5.16
2022-11-26T07:34:46.691Z,5.14
2022-11-26T07:37:14.019Z,5.17
2022-11-26T07:39:41.332Z,5.19
2022-11-26T07:42:08.585Z,5.17
2022-11-26T07:44:36.092Z,5.16
2022-11-26T07:47:04.520Z,5.16
2022-11-26T07:49:32.267Z,5.13
2022-11-26T07:51:59.759Z,5.15
2022-11-26T07:54:27.127Z,5.18
2022-11-26T07:56:54.486Z,5.20
2022-11-26T07:59:23.009Z,5.22
2022-11-26T08:01:50.593Z,5.26
2022-11-26T08:04:18.025Z,5.28
2022-11-26T08:06:45.370Z,5.26
2022-11-26T08:09:13.262Z,5.30
2022-11-26T08:11:45.095Z,5.28
2022-11-26T08:14:13.471Z,5.28
2022-11-26T08:16:41.197Z,5.30
2022-11-26T08:19:12.720Z,5.32
2022-11-26T08:21:40.775Z,5.37
2022-11-26T08:24:14.412Z,5.38
2022-11-26T08:26:44.337Z,5.34
2022-11-26T08:29:12.974Z,5.36
2022-11-26T08:31:45.991Z,5.32
2022-11-26T08:34:15.727Z,5.30
2022-11-26T08:36:43.816Z,5.26
2022-11-26T08:39:19.052Z,5.28
2022-11-26T08:41:52.163Z,5.44
2022-11-26T08:44:21.109Z,5.66
2022-11-26T08:46:50.508Z,5.93
2022-11-26T08:49:18.126Z,6.06
2022-11-26T08:51:45.663Z,5.92
2022-11-26T08:54:13.142Z,5.80
2022-11-26T08:56:40.654Z,5.70
2022-11-26T08:59:08.072Z,5.68
2022-11-26T09:01:35.559Z,5.66
2022-11-26T09:04:04.582Z,5.76
2022-11-26T09:06:38.345Z,5.87
2022-11-26T09:09:15.468Z,5.98
2022-11-26T09:11:51.970Z,6.01
2022-11-26T09:14:21.730Z,5.90
2022-11-26T09:16:49.372Z,5.81
2022-11-26T09:19:17.935Z,5.84
2022-11-26T09:21:45.747Z,5.96
2022-11-26T09:24:13.904Z,6.02
2022-11-26T09:26:41.322Z,6.04
2022-11-26T09:29:12.968Z,6.02
2022-11-26T09:32:00.902Z,5.98
2022-11-26T09:34:30.358Z,6.01
2022-11-26T09:36:59.701Z,6.11
2022-11-26T09:39:28.376Z,6.20
2022-11-26T09:42:17.761Z,6.35
2022-11-26T09:45:05.157Z,6.49
2022-11-26T09:47:46.792Z,6.51
2022-11-26T09:50:14.131Z,6.39
2022-11-26T09:52:57.922Z,6.29
2022-11-26T09:55:37.575Z,6.20
2022-11-26T09:58:13.528Z,6.12
2022-11-26T10:00:47.093Z,6.10
2022-11-26T10:03:17.919Z,6.12
2022-11-26T10:06:00.878Z,6.09
2022-11-26T10:08:31.262Z,6.07
2022-11-26T10:11:10.862Z,6.06
2022-11-26T10:13:38.178Z,6.08
2022-11-26T10:16:38.546Z,6.05
2022-11-26T10:19:20.507Z,6.08
2022-11-26T10:21:59.043Z,5.99
2022-11-26T10:24:29.942Z,6.02
2022-11-26T10:27:09.809Z,6.01
2022-11-26T10:29:46.546Z,5.97
2022-11-26T10:32:27.759Z,5.98
2022-11-26T10:34:57.822Z,5.97
2022-11-26T10:37:27.700Z,6.02
2022-11-26T10:40:07.446Z,5.94
2022-11-26T10:42:44.370Z,5.91
2022-11-26T10:45:42.676Z,5.84
2022-11-26T10:48:30.907Z,5.85
2022-11-26T10:51:26.600Z,5.80
2022-11-26T10:54:00.217Z,5.80
2022-11-26T10:56:41.401Z,5.81
2022-11-26T10:59:31.589Z,5.84
2022-11-26T11:02:05.843Z,5.90
2022-11-26T11:04:39.561Z,5.90
2022-11-26T11:07:27.082Z,5.92
2022-11-26T11:10:08.425Z,5.92
2022-11-26T11:12:37.663Z,5.94
2022-11-26T11:15:20.779Z,5.99
2022-11-26T11:17:58.181Z,6.01
2022-11-26T11:20:37.819Z,6.11
2022-11-26T11:23:11.370Z,6.17
2022-11-26T11:25:41.750Z,6.29
2022-11-26T11:28:20.328Z,6.35
2022-11-26T11:30:59.714Z,6.38
2022-11-26T11:33:28.668Z,6.42
2022-11-26T11:36:02.165Z,6.46
2022-11-26T11:38:34.586Z,6.42
2022-11-26T11:41:04.985Z,6.37
2022-11-26T11:43:36.904Z,6.43
2022-11-26T11:46:32.088Z,6.51
2022-11-26T11:49:15.132Z,6.47
2022-11-26T11:52:00.787Z,6.57
2022-11-26T11:54:42.519Z,6.66
2022-11-26T11:57:20.677Z,6.69
2022-11-26T12:00:12.178Z,6.69
2022-11-26T12:03:10.643Z,6.54
2022-11-26T12:05:41.673Z,6.50
2022-11-26T12:08:35.310Z,6.49
2022-11-26T12:11:22.973Z,6.55
2022-11-26T12:13:56.566Z,6.67
2022-11-26T12:16:28.496Z,6.76
2022-11-26T12:19:05.542Z,6.65
2022-11-26T12:21:58.034Z,6.69
2022-11-26T12:24:36.976Z,6.71
2022-11-26T12:27:24.709Z,6.71
2022-11-26T12:30:08.741Z,6.63
2022-11-26T12:32:48.029Z,6.61
2022-11-26T12:35:55.397Z,6.63
2022-11-26T12:38:27.483Z,6.52
2022-11-26T12:41:18.727Z,6.38
2022-11-26T12:44:05.737Z,6.36
2022-11-26T12:47:52.751Z,6.41
2022-11-26T12:50:44.693Z,6.49
2022-11-26T12:53:39.053Z,6.56
2022-11-26T12:56:48.406Z,6.66
2022-11-26T12:59:31.075Z,6.71
2022-11-26T13:01:58.731Z,6.76
2022-11-26T13:04:38.545Z,6.84
2022-11-26T13:07:31.169Z,6.85
2022-11-26T13:10:35.811Z,6.86
2022-11-26T13:13:03.485Z,6.89
2022-11-26T13:15:50.126Z,6.88
2022-11-26T13:18:39.493Z,6.95
2022-11-26T13:21:35.780Z,6.94
2022-11-26T13:24:45.660Z,7.00
2022-11-26T13:27:44.184Z,6.98
2022-11-26T13:30:21.345Z,6.86
2022-11-26T13:33:13.160Z,6.70
2022-11-26T13:36:10.324Z,6.66
2022-11-26T13:38:56.483Z,6.60
2022-11-26T13:41:42.767Z,6.58
2022-11-26T13:44:17.142Z,6.53
2022-11-26T13:47:01.901Z,6.55
2022-11-26T13:49:46.112Z,6.52
2022-11-26T13:52:20.159Z,6.51
2022-11-26T13:55:10.609Z,6.49
2022-11-26T13:57:47.915Z,6.51
2022-11-26T14:00:36.457Z,6.47
2022-11-26T14:03:09.566Z,6.48
2022-11-26T14:05:49.458Z,6.46
2022-11-26T14:08:45.199Z,6.41
2022-11-26T14:11:33.245Z,6.37
2022-11-26T14:14:39.838Z,6.37
2022-11-26T14:17:35.348Z,6.33
2022-11-26T14:20:04.252Z,6.29
2022-11-26T14:22:35.732Z,6.28
2022-11-26T14:25:09.292Z,6.24
2022-11-26T14:28:10.017Z,6.24
2022-11-26T14:30:37.588Z,6.25
2022-11-26T14:33:15.441Z,6.28
2022-11-26T14:35:53.226Z,6.24
2022-11-26T14:38:47.566Z,6.17
2022-11-26T14:41:14.979Z,6.10
2022-11-26T14:43:43.040Z,6.00
2022-11-26T14:46:17.528Z,5.82
2022-11-26T14:48:47.540Z,5.74
2022-11-26T14:51:26.640Z,5.62
2022-11-26T14:54:10.386Z,5.56
2022-11-26T14:56:41.836Z,5.45
2022-11-26T14:59:18.893Z,5.41
2022-11-26T15:01:47.005Z,5.39
2022-11-26T15:04:34.760Z,5.32
2022-11-26T15:07:02.540Z,5.16
2022-11-26T15:09:30.062Z,5.16
2022-11-26T15:12:15.889Z,5.07
2022-11-26T15:15:25.046Z,5.03
2022-11-26T15:18:01.265Z,4.99
2022-11-26T15:20:29.387Z,4.93
2022-11-26T15:23:01.706Z,4.96
2022-11-26T15:25:32.671Z,4.97
2022-11-26T15:28:05.428Z,4.95
2022-11-26T15:30:35.862Z,4.85
2022-11-26T15:33:10.980Z,4.82
2022-11-26T15:35:40.073Z,4.80
2022-11-26T15:38:20.427Z,4.81
2022-11-26T15:40:55.286Z,4.87
2022-11-26T15:44:20.403Z,4.93
2022-11-26T15:46:52.947Z,5.03
2022-11-26T15:49:28.180Z,5.06
2022-11-26T15:51:57.998Z,5.11
2022-11-26T15:54:43.523Z,5.13
2022-11-26T15:57:22.260Z,5.21
2022-11-26T16:00:12.926Z,5.23
2022-11-26T16:02:41.190Z,5.30
2022-11-26T16:05:29.748Z,5.28
2022-11-26T16:08:02.479Z,5.32
2022-11-26T16:10:37.109Z,5.34
2022-11-26T16:13:23.119Z,5.29
2022-11-26T16:16:05.629Z,5.37
2022-11-26T16:18:44.429Z,5.39
2022-11-26T16:21:19.123Z,5.44
2022-11-26T16:23:53.764Z,5.48
2022-11-26T16:26:21.356Z,5.53
2022-11-26T16:28:49.656Z,5.54
2022-11-26T16:31:18.047Z,5.56
2022-11-26T16:33:45.984Z,5.54
2022-11-26T16:36:22.991Z,5.53
2022-11-26T16:38:51.555Z,5.52
2022-11-26T16:41:21.482Z,5.47
2022-11-26T16:43:49.576Z,5.39
2022-11-26T16:46:23.725Z,5.41
2022-11-26T16:48:51.765Z,5.40
2022-11-26T16:51:21.430Z,5.48
2022-11-26T16:53:56.618Z,5.46
2022-11-26T16:56:33.321Z,5.41
2022-11-26T16:59:23.009Z,5.44
2022-11-26T17:01:50.422Z,5.40
2022-11-26T17:04:18.915Z,5.38
2022-11-26T17:06:55.749Z,5.33
2022-11-26T17:09:23.256Z,5.26
2022-11-26T17:11:50.619Z,5.27
2022-11-26T17:14:18.511Z,5.30
2022-11-26T17:16:59.690Z,5.18
2022-11-26T17:19:29.048Z,5.13
2022-11-26T17:22:02.369Z,5.11
2022-11-26T17:24:31.576Z,5.12
2022-11-26T17:27:01.369Z,5.17
2022-11-26T17:29:28.855Z,5.20
2022-11-26T17:31:56.354Z,5.24
2022-11-26T17:34:26.974Z,5.27
2022-11-26T17:37:00.361Z,5.26
2022-11-26T17:39:27.909Z,5.30
2022-11-26T17:41:55.299Z,5.32
2022-11-26T17:44:22.674Z,5.31
2022-11-26T17:49:37.921Z,5.27
2022-11-26T17:52:06.526Z,5.25
2022-11-26T17:54:33.973Z,5.19
2022-11-26T17:57:01.847Z,5.19
2022-11-26T17:59:30.126Z,5.05
2022-11-26T18:02:02.732Z,4.99
2022-11-26T18:04:30.314Z,5.01
2022-11-26T18:07:18.396Z,4.96
2022-11-26T18:09:46.965Z,4.90
2022-11-26T18:12:26.173Z,4.82
2022-11-26T18:14:58.096Z,4.84
2022-11-26T18:17:25.857Z,4.90
2022-11-26T18:19:54.974Z,4.84
2022-11-26T18:22:24.955Z,4.77
2022-11-26T18:24:57.203Z,4.69
2022-11-26T18:27:31.204Z,4.71
2022-11-26T18:30:07.705Z,4.79
2022-11-26T18:32:48.258Z,4.83
2022-11-26T18:35:16.594Z,4.87
2022-11-26T18:37:49.219Z,4.93
2022-11-26T18:40:18.253Z,4.88
2022-11-26T18:42:51.468Z,4.95
2022-11-26T18:45:20.040Z,4.98
2022-11-26T18:47:51.057Z,4.95
2022-11-26T18:50:19.485Z,4.86
2022-11-26T18:52:52.861Z,4.89
2022-11-26T18:55:27.172Z,4.85
2022-11-26T18:57:54.579Z,4.81
2022-11-26T19:00:29.923Z,4.81
2022-11-26T19:02:58.183Z,4.79
2022-11-26T19:05:26.782Z,4.76
2022-11-26T19:07:56.681Z,4.85
2022-11-26T19:10:26.931Z,4.84
2022-11-26T19:12:55.305Z,4.86
2022-11-26T19:15:32.288Z,4.80
2022-11-26T19:18:00.413Z,4.78
2022-11-26T19:20:28.502Z,4.75
2022-11-26T19:23:03.732Z,4.68
2022-11-26T19:25:32.650Z,4.58
2022-11-26T19:28:04.922Z,4.51
2022-11-26T19:30:33.357Z,4.50
2022-11-26T19:33:01.378Z,4.49
2022-11-26T19:35:29.086Z,4.51
2022-11-26T19:38:06.422Z,4.47
2022-11-26T19:40:34.914Z,4.48
2022-11-26T19:43:05.999Z,4.47
2022-11-26T19:45:34.292Z,4.50
2022-11-26T19:48:02.895Z,4.52
2022-11-26T19:50:31.106Z,4.49
2022-11-26T19:52:59.871Z,4.49
2022-11-26T19:55:28.052Z,4.47
2022-11-26T19:57:56.012Z,4.41
2022-11-26T20:00:40.952Z,4.42
2022-11-26T20:03:10.294Z,4.37
2022-11-26T20:05:40.424Z,4.38
2022-11-26T20:08:09.557Z,4.39
2022-11-26T20:10:37.808Z,4.38
2022-11-26T20:13:06.902Z,4.38
2022-11-26T20:15:41.986Z,4.38
2022-11-26T20:18:09.975Z,4.32
2022-11-26T20:20:37.617Z,4.30
2022-11-26T20:23:05.298Z,4.30
2022-11-26T20:25:36.142Z,4.27
2022-11-26T20:28:04.664Z,4.27
2022-11-26T20:30:32.588Z,4.32
2022-11-26T20:33:00.554Z,4.35
2022-11-26T20:35:44.609Z,4.32
2022-11-26T20:38:14.003Z,4.31
2022-11-26T20:40:43.369Z,4.30
2022-11-26T20:43:11.620Z,4.32
2022-11-26T20:45:39.920Z,4.31
2022-11-26T20:48:08.723Z,4.27
2022-11-26T20:50:46.549Z,4.29
2022-11-26T20:53:14.245Z,4.25
2022-11-26T20:55:53.194Z,4.21
2022-11-26T20:58:20.927Z,4.18
2022-11-26T21:00:48.700Z,4.12
2022-11-26T21:03:16.519Z,4.07
2022-11-26T21:05:44.037Z,4.01
2022-11-26T21:08:11.429Z,3.98
2022-11-26T21:10:40.391Z,3.94
2022-11-26T21:13:10.764Z,3.94
2022-11-26T21:15:40.508Z,3.95
2022-11-26T21:18:08.702Z,3.91
2022-11-26T21:20:45.180Z,3.93
2022-11-26T21:23:13.378Z,3.95
2022-11-26T21:25:42.790Z,3.96
2022-11-26T21:28:11.329Z,3.95
2022-11-26T21:30:39.005Z,3.99
2022-11-26T21:33:09.557Z,3.98
2022-11-26T21:35:37.471Z,3.97
2022-11-26T21:38:05.963Z,3.97
2022-11-26T21:40:33.662Z,3.97
2022-11-26T21:43:01.069Z,3.93
2022-11-26T21:45:29.247Z,3.95
2022-11-26T21:47:56.540Z,3.96
2022-11-26T21:50:23.918Z,3.93
2022-11-26T21:52:51.208Z,3.91
2022-11-26T21:55:18.540Z,3.89
2022-11-26T21:57:45.856Z,3.85
2022-11-26T22:00:13.989Z,3.79
2022-11-26T22:02:41.426Z,3.74
2022-11-26T22:05:09.045Z,3.70
2022-11-26T22:07:37.255Z,3.72
2022-11-26T22:10:05.516Z,3.61
2022-11-26T22:12:33.788Z,3.58
2022-11-26T22:15:01.135Z,3.54
2022-11-26T22:17:29.020Z,3.51
2022-11-26T22:19:56.256Z,3.53
2022-11-26T22:22:23.548Z,3.45
2022-11-26T22:24:51.027Z,3.38
2022-11-26T22:27:18.524Z,3.33
2022-11-26T22:29:45.932Z,3.27
2022-11-26T22:32:13.285Z,3.22
2022-11-26T22:34:40.738Z,3.16
2022-11-26T22:37:08.357Z,3.08
2022-11-26T22:39:35.812Z,3.05
2022-11-26T22:42:03.207Z,3.05
2022-11-26T22:44:30.668Z,3.10
2022-11-26T22:46:58.134Z,3.15
2022-11-26T22:49:25.762Z,3.20
2022-11-26T22:51:53.031Z,3.22
2022-11-26T22:54:21.410Z,3.27
2022-11-26T22:56:48.776Z,3.26
2022-11-26T22:59:16.169Z,3.27
2022-11-26T23:01:43.552Z,3.30
2022-11-26T23:04:11.510Z,3.36
2022-11-26T23:06:39.792Z,3.41
2022-11-26T23:09:08.709Z,3.48
2022-11-26T23:11:39.088Z,3.52
2022-11-26T23:14:09.506Z,3.50
2022-11-26T23:16:39.260Z,3.52
2022-11-26T23:19:07.283Z,3.50
2022-11-26T23:21:40.195Z,3.49
2022-11-26T23:24:07.912Z,3.48
2022-11-26T23:26:37.572Z,3.45
2022-11-26T23:29:06.445Z,3.44
2022-11-26T23:31:36.392Z,3.37
2022-11-26T23:34:04.590Z,3.37
2022-11-26T23:36:33.141Z,3.34
2022-11-26T23:39:01.874Z,3.32
2022-11-26T23:41:29.765Z,3.37
2022-11-26T23:43:57.000Z,3.36
2022-11-26T23:46:28.156Z,3.35
2022-11-26T23:48:55.610Z,3.38
2022-11-26T23:51:26.323Z,3.44
2022-11-26T23:53:54.738Z,3.48
2022-11-26T23:56:28.126Z,3.50
2022-11-26T23:58:58.957Z,3.52
